sensor_id;sensor_type;location;lat;lon;timestamp;pressure;altitude;pressure_sealevel;temperature;humidity
11349;BME280;5729;43.570;27.826;2022-09-09T00:06:30;99315.75;;;19.71;100.00
11349;BME280;5729;43.570;27.826;2022-09-09T00:09:21;99318.84;;;19.73;100.00
11349;BME280;5729;43.570;27.826;2022-09-09T00:17:36;99318.44;;;19.74;100.00
11349;BME280;5729;43.570;27.826;2022-09-09T00:22:41;99310.66;;;19.69;100.00
11349;BME280;5729;43.570;27.826;2022-09-09T00:25:15;99303.63;;;19.72;100.00
11349;BME280;5729;43.570;27.826;2022-09-09T00:27:50;99295.00;;;19.73;100.00
11349;BME280;5729;43.570;27.826;2022-09-09T00:30:23;99300.09;;;19.71;100.00
11349;BME280;5729;43.570;27.826;2022-09-09T00:32:53;99300.50;;;19.70;100.00
11349;BME280;5729;43.570;27.826;2022-09-09T00:35:31;99300.19;;;19.64;100.00
11349;BME280;5729;43.570;27.826;2022-09-09T00:38:11;99304.47;;;19.65;100.00
11349;BME280;5729;43.570;27.826;2022-09-09T00:40:48;99278.13;;;19.48;100.00
11349;BME280;5729;43.570;27.826;2022-09-09T00:43:25;99306.88;;;19.63;100.00
11349;BME280;5729;43.570;27.826;2022-09-09T00:54:51;99300.69;;;19.55;100.00
11349;BME280;5729;43.570;27.826;2022-09-09T01:07:58;99296.94;;;19.42;100.00
11349;BME280;5729;43.570;27.826;2022-09-09T01:10:52;99298.88;;;19.42;100.00
11349;BME280;5729;43.570;27.826;2022-09-09T01:13:35;99295.44;;;19.38;100.00
11349;BME280;5729;43.570;27.826;2022-09-09T01:16:04;99304.84;;;19.33;100.00
11349;BME280;5729;43.570;27.826;2022-09-09T01:18:37;99305.25;;;19.32;100.00
11349;BME280;5729;43.570;27.826;2022-09-09T01:22:26;99301.03;;;19.27;100.00
11349;BME280;5729;43.570;27.826;2022-09-09T01:27:13;99301.09;;;19.20;100.00
11349;BME280;5729;43.570;27.826;2022-09-09T01:29:40;99298.03;;;19.18;100.00
11349;BME280;5729;43.570;27.826;2022-09-09T01:35:24;99286.38;;;19.14;100.00
11349;BME280;5729;43.570;27.826;2022-09-09T01:37:54;99287.94;;;19.11;100.00
11349;BME280;5729;43.570;27.826;2022-09-09T01:40:19;99283.66;;;19.10;100.00
11349;BME280;5729;43.570;27.826;2022-09-09T01:42:45;99277.81;;;19.08;100.00
11349;BME280;5729;43.570;27.826;2022-09-09T01:45:10;99289.19;;;19.07;100.00
11349;BME280;5729;43.570;27.826;2022-09-09T01:47:35;99286.09;;;19.05;100.00
11349;BME280;5729;43.570;27.826;2022-09-09T01:50:02;99290.00;;;19.04;100.00
11349;BME280;5729;43.570;27.826;2022-09-09T01:52:29;99281.06;;;19.00;100.00
11349;BME280;5729;43.570;27.826;2022-09-09T01:54:55;99282.66;;;18.97;100.00
11349;BME280;5729;43.570;27.826;2022-09-09T01:57:33;99292.44;;;18.95;100.00
11349;BME280;5729;43.570;27.826;2022-09-09T02:00:09;99294.81;;;18.93;100.00
11349;BME280;5729;43.570;27.826;2022-09-09T02:02:48;99303.81;;;18.90;100.00
11349;BME280;5729;43.570;27.826;2022-09-09T02:08:03;99268.53;;;18.68;100.00
11349;BME280;5729;43.570;27.826;2022-09-09T02:10:35;99279.03;;;18.73;100.00
11349;BME280;5729;43.570;27.826;2022-09-09T02:13:14;99297.69;;;18.75;100.00
11349;BME280;5729;43.570;27.826;2022-09-09T02:15:58;99306.66;;;18.79;100.00
11349;BME280;5729;43.570;27.826;2022-09-09T02:18:40;99301.59;;;18.77;100.00
11349;BME280;5729;43.570;27.826;2022-09-09T02:21:09;99276.81;;;18.61;100.00
11349;BME280;5729;43.570;27.826;2022-09-09T02:23:37;99299.31;;;18.72;100.00
11349;BME280;5729;43.570;27.826;2022-09-09T02:26:05;99303.59;;;18.73;100.00
11349;BME280;5729;43.570;27.826;2022-09-09T02:28:34;99298.88;;;18.74;100.00
11349;BME280;5729;43.570;27.826;2022-09-09T02:31:01;99294.97;;;18.75;100.00
11349;BME280;5729;43.570;27.826;2022-09-09T02:33:32;99294.63;;;18.73;100.00
11349;BME280;5729;43.570;27.826;2022-09-09T02:36:01;99295.41;;;18.73;100.00
11349;BME280;5729;43.570;27.826;2022-09-09T02:38:32;99272.53;;;18.53;100.00
11349;BME280;5729;43.570;27.826;2022-09-09T02:41:00;99289.22;;;18.66;100.00
11349;BME280;5729;43.570;27.826;2022-09-09T02:43:31;99271.38;;;18.54;100.00
11349;BME280;5729;43.570;27.826;2022-09-09T02:46:07;99299.72;;;18.71;100.00
11349;BME280;5729;43.570;27.826;2022-09-09T02:49:02;99302.47;;;18.67;100.00
11349;BME280;5729;43.570;27.826;2022-09-09T02:54:28;99294.75;;;18.62;100.00
11349;BME280;5729;43.570;27.826;2022-09-09T02:59:27;99293.22;;;18.58;100.00
11349;BME280;5729;43.570;27.826;2022-09-09T03:01:52;99291.63;;;18.60;100.00
11349;BME280;5729;43.570;27.826;2022-09-09T03:04:18;99297.50;;;18.59;100.00
11349;BME280;5729;43.570;27.826;2022-09-09T03:06:44;99296.31;;;18.60;100.00
11349;BME280;5729;43.570;27.826;2022-09-09T03:09:09;99300.19;;;18.62;100.00
11349;BME280;5729;43.570;27.826;2022-09-09T03:11:36;99304.06;;;18.65;100.00
11349;BME280;5729;43.570;27.826;2022-09-09T03:14:02;99304.50;;;18.60;100.00
11349;BME280;5729;43.570;27.826;2022-09-09T03:16:27;99297.50;;;18.51;100.00
11349;BME280;5729;43.570;27.826;2022-09-09T03:18:52;99304.53;;;18.52;100.00
11349;BME280;5729;43.570;27.826;2022-09-09T03:21:18;99298.66;;;18.54;100.00
11349;BME280;5729;43.570;27.826;2022-09-09T03:23:43;99299.81;;;18.57;100.00
11349;BME280;5729;43.570;27.826;2022-09-09T03:26:10;99302.25;;;18.47;100.00
11349;BME280;5729;43.570;27.826;2022-09-09T03:28:35;99289.31;;;18.51;100.00
11349;BME280;5729;43.570;27.826;2022-09-09T03:31:02;99302.53;;;18.57;100.00
11349;BME280;5729;43.570;27.826;2022-09-09T03:33:29;99294.38;;;18.60;100.00
11349;BME280;5729;43.570;27.826;2022-09-09T03:35:55;99298.66;;;18.61;100.00
11349;BME280;5729;43.570;27.826;2022-09-09T03:38:24;99288.84;;;18.64;100.00
11349;BME280;5729;43.570;27.826;2022-09-09T03:40:55;99297.00;;;18.67;100.00
11349;BME280;5729;43.570;27.826;2022-09-09T03:43:25;99269.50;;;18.47;100.00
11349;BME280;5729;43.570;27.826;2022-09-09T03:45:52;99289.19;;;18.69;100.00
11349;BME280;5729;43.570;27.826;2022-09-09T03:48:18;99293.47;;;18.70;100.00
11349;BME280;5729;43.570;27.826;2022-09-09T03:50:45;99294.63;;;18.73;100.00
11349;BME280;5729;43.570;27.826;2022-09-09T03:53:11;99311.00;;;18.73;100.00
11349;BME280;5729;43.570;27.826;2022-09-09T03:55:36;99276.44;;;18.59;100.00
11349;BME280;5729;43.570;27.826;2022-09-09T03:58:02;99305.13;;;18.74;100.00
11349;BME280;5729;43.570;27.826;2022-09-09T04:00:27;99306.69;;;18.75;100.00
11349;BME280;5729;43.570;27.826;2022-09-09T04:02:54;99304.72;;;18.76;100.00
11349;BME280;5729;43.570;27.826;2022-09-09T04:05:19;99302.38;;;18.74;100.00
11349;BME280;5729;43.570;27.826;2022-09-09T04:07:45;99306.69;;;18.75;100.00
11349;BME280;5729;43.570;27.826;2022-09-09T04:10:10;99312.53;;;18.74;100.00
11349;BME280;5729;43.570;27.826;2022-09-09T04:12:36;99307.53;;;18.69;100.00
11349;BME280;5729;43.570;27.826;2022-09-09T04:15:01;99305.91;;;18.75;100.00
11349;BME280;5729;43.570;27.826;2022-09-09T04:17:27;99302.75;;;18.76;100.00
11349;BME280;5729;43.570;27.826;2022-09-09T04:19:53;99307.06;;;18.77;100.00
11349;BME280;5729;43.570;27.826;2022-09-09T04:22:18;99310.16;;;18.79;100.00
11349;BME280;5729;43.570;27.826;2022-09-09T04:24:43;99303.13;;;18.82;100.00
11349;BME280;5729;43.570;27.826;2022-09-09T04:27:09;99298.03;;;18.84;100.00
11349;BME280;5729;43.570;27.826;2022-09-09T04:29:34;99303.06;;;18.85;100.00
11349;BME280;5729;43.570;27.826;2022-09-09T04:32:00;99313.16;;;18.92;100.00
11349;BME280;5729;43.570;27.826;2022-09-09T04:34:26;99306.09;;;18.95;100.00
11349;BME280;5729;43.570;27.826;2022-09-09T04:36:51;99299.91;;;18.91;100.00
11349;BME280;5729;43.570;27.826;2022-09-09T04:39:21;99294.75;;;18.96;100.00
11349;BME280;5729;43.570;27.826;2022-09-09T04:41:46;99301.34;;;18.99;100.00
11349;BME280;5729;43.570;27.826;2022-09-09T04:44:12;99299.00;;;19.01;100.00
11349;BME280;5729;43.570;27.826;2022-09-09T04:46:37;99295.84;;;19.06;100.00
11349;BME280;5729;43.570;27.826;2022-09-09T04:49:03;99289.91;;;19.11;100.00
11349;BME280;5729;43.570;27.826;2022-09-09T04:51:28;99289.47;;;19.16;100.00
11349;BME280;5729;43.570;27.826;2022-09-09T04:53:56;99292.50;;;19.21;100.00
11349;BME280;5729;43.570;27.826;2022-09-09T04:56:21;99305.31;;;19.28;100.00
11349;BME280;5729;43.570;27.826;2022-09-09T04:58:47;99291.56;;;19.35;100.00
11349;BME280;5729;43.570;27.826;2022-09-09T05:01:15;99305.09;;;19.46;100.00
11349;BME280;5729;43.570;27.826;2022-09-09T05:03:43;99309.31;;;19.54;100.00
11349;BME280;5729;43.570;27.826;2022-09-09T05:06:12;99304.56;;;19.58;100.00
11349;BME280;5729;43.570;27.826;2022-09-09T05:08:40;99311.91;;;19.65;100.00
11349;BME280;5729;43.570;27.826;2022-09-09T05:11:23;99300.41;;;19.77;100.00
11349;BME280;5729;43.570;27.826;2022-09-09T05:13:49;99308.56;;;19.80;100.00
11349;BME280;5729;43.570;27.826;2022-09-09T05:16:16;99307.25;;;19.88;100.00
11349;BME280;5729;43.570;27.826;2022-09-09T05:18:42;99298.25;;;19.91;100.00
11349;BME280;5729;43.570;27.826;2022-09-09T05:21:08;99290.81;;;19.92;100.00
11349;BME280;5729;43.570;27.826;2022-09-09T05:23:34;99313.19;;;20.10;100.00
11349;BME280;5729;43.570;27.826;2022-09-09T05:26:01;99307.13;;;20.22;100.00
11349;BME280;5729;43.570;27.826;2022-09-09T05:28:27;99303.91;;;20.31;100.00
11349;BME280;5729;43.570;27.826;2022-09-09T05:31:04;99302.59;;;20.39;100.00
11349;BME280;5729;43.570;27.826;2022-09-09T05:33:31;99294.25;;;20.46;100.00
11349;BME280;5729;43.570;27.826;2022-09-09T05:36:02;99289.91;;;20.49;100.00
11349;BME280;5729;43.570;27.826;2022-09-09T05:38:28;99296.75;;;20.60;100.00
11349;BME280;5729;43.570;27.826;2022-09-09T05:40:54;99267.88;;;20.56;100.00
11349;BME280;5729;43.570;27.826;2022-09-09T05:43:21;99286.66;;;20.77;100.00
11349;BME280;5729;43.570;27.826;2022-09-09T05:45:47;99273.69;;;20.81;100.00
11349;BME280;5729;43.570;27.826;2022-09-09T05:48:14;99272.34;;;20.89;100.00
11349;BME280;5729;43.570;27.826;2022-09-09T05:50:43;99273.41;;;20.95;100.00
11349;BME280;5729;43.570;27.826;2022-09-09T05:53:10;99270.94;;;21.01;100.00
11349;BME280;5729;43.570;27.826;2022-09-09T05:55:36;99276.38;;;21.05;100.00
11349;BME280;5729;43.570;27.826;2022-09-09T05:58:01;99254.38;;;21.08;100.00
11349;BME280;5729;43.570;27.826;2022-09-09T06:00:27;99250.28;;;21.16;100.00
11349;BME280;5729;43.570;27.826;2022-09-09T06:02:54;99274.97;;;21.36;100.00
11349;BME280;5729;43.570;27.826;2022-09-09T06:05:19;99266.38;;;21.34;100.00
11349;BME280;5729;43.570;27.826;2022-09-09T06:07:45;99271.38;;;21.39;100.00
11349;BME280;5729;43.570;27.826;2022-09-09T06:10:11;99278.88;;;21.55;100.00
11349;BME280;5729;43.570;27.826;2022-09-09T06:12:39;99280.25;;;21.63;100.00
11349;BME280;5729;43.570;27.826;2022-09-09T06:15:05;99292.38;;;21.65;100.00
11349;BME280;5729;43.570;27.826;2022-09-09T06:17:31;99286.72;;;21.72;100.00
11349;BME280;5729;43.570;27.826;2022-09-09T06:19:56;99276.22;;;21.67;100.00
11349;BME280;5729;43.570;27.826;2022-09-09T06:22:22;99284.66;;;21.77;100.00
11349;BME280;5729;43.570;27.826;2022-09-09T06:24:48;99314.84;;;21.93;100.00
11349;BME280;5729;43.570;27.826;2022-09-09T06:27:13;99301.13;;;21.93;100.00
11349;BME280;5729;43.570;27.826;2022-09-09T06:29:39;99310.69;;;22.04;100.00
11349;BME280;5729;43.570;27.826;2022-09-09T06:32:04;99309.25;;;22.16;100.00
11349;BME280;5729;43.570;27.826;2022-09-09T06:34:30;99315.00;;;22.22;100.00
11349;BME280;5729;43.570;27.826;2022-09-09T06:36:56;99318.69;;;22.31;100.00
11349;BME280;5729;43.570;27.826;2022-09-09T06:39:23;99313.38;;;22.40;100.00
11349;BME280;5729;43.570;27.826;2022-09-09T06:41:48;99309.66;;;22.47;100.00
11349;BME280;5729;43.570;27.826;2022-09-09T06:44:15;99309.56;;;22.51;100.00
11349;BME280;5729;43.570;27.826;2022-09-09T06:46:41;99308.38;;;22.52;100.00
11349;BME280;5729;43.570;27.826;2022-09-09T06:49:09;99298.06;;;22.56;100.00
11349;BME280;5729;43.570;27.826;2022-09-09T06:51:36;99276.53;;;22.54;100.00
11349;BME280;5729;43.570;27.826;2022-09-09T06:54:07;99302.09;;;22.67;100.00
11349;BME280;5729;43.570;27.826;2022-09-09T06:56:36;99300.00;;;22.71;100.00
11349;BME280;5729;43.570;27.826;2022-09-09T06:59:04;99286.69;;;22.70;100.00
11349;BME280;5729;43.570;27.826;2022-09-09T07:01:32;99293.47;;;22.81;100.00
11349;BME280;5729;43.570;27.826;2022-09-09T07:03:59;99285.59;;;22.84;100.00
11349;BME280;5729;43.570;27.826;2022-09-09T07:06:36;99286.59;;;22.90;100.00
11349;BME280;5729;43.570;27.826;2022-09-09T07:09:07;99296.88;;;23.02;100.00
11349;BME280;5729;43.570;27.826;2022-09-09T07:11:37;99272.22;;;22.98;100.00
11349;BME280;5729;43.570;27.826;2022-09-09T07:14:03;99285.81;;;23.18;100.00
11349;BME280;5729;43.570;27.826;2022-09-09T07:16:29;99291.09;;;23.25;100.00
11349;BME280;5729;43.570;27.826;2022-09-09T07:18:56;99294.09;;;23.31;100.00
11349;BME280;5729;43.570;27.826;2022-09-09T07:21:24;99300.91;;;23.39;100.00
11349;BME280;5729;43.570;27.826;2022-09-09T07:23:51;99307.31;;;23.48;100.00
11349;BME280;5729;43.570;27.826;2022-09-09T07:26:19;99294.31;;;23.49;100.00
11349;BME280;5729;43.570;27.826;2022-09-09T07:28:46;99303.19;;;23.69;100.00
11349;BME280;5729;43.570;27.826;2022-09-09T07:31:22;99311.34;;;23.73;100.00
11349;BME280;5729;43.570;27.826;2022-09-09T07:33:49;99315.88;;;23.79;100.00
11349;BME280;5729;43.570;27.826;2022-09-09T07:36:19;99312.88;;;23.86;100.00
11349;BME280;5729;43.570;27.826;2022-09-09T07:38:59;99302.75;;;23.96;96.65
11349;BME280;5729;43.570;27.826;2022-09-09T07:41:40;99309.91;;;24.06;89.60
11349;BME280;5729;43.570;27.826;2022-09-09T07:44:16;99308.34;;;24.18;88.20
11349;BME280;5729;43.570;27.826;2022-09-09T07:46:42;99315.41;;;24.32;83.17
11349;BME280;5729;43.570;27.826;2022-09-09T07:49:10;99300.75;;;24.35;83.63
11349;BME280;5729;43.570;27.826;2022-09-09T07:51:38;99306.09;;;24.51;79.45
11349;BME280;5729;43.570;27.826;2022-09-09T07:54:07;99311.72;;;24.60;81.38
11349;BME280;5729;43.570;27.826;2022-09-09T07:56:35;99322.38;;;24.71;83.45
11349;BME280;5729;43.570;27.826;2022-09-09T07:59:00;99314.75;;;24.75;75.92
11349;BME280;5729;43.570;27.826;2022-09-09T08:01:29;99305.59;;;24.78;73.53
11349;BME280;5729;43.570;27.826;2022-09-09T08:03:59;99312.06;;;24.84;76.77
11349;BME280;5729;43.570;27.826;2022-09-09T08:06:27;99307.09;;;24.91;76.69
11349;BME280;5729;43.570;27.826;2022-09-09T08:08:53;99306.28;;;25.04;75.33
11349;BME280;5729;43.570;27.826;2022-09-09T08:11:20;99298.63;;;25.08;76.73
11349;BME280;5729;43.570;27.826;2022-09-09T08:13:46;99299.47;;;25.17;74.48
11349;BME280;5729;43.570;27.826;2022-09-09T08:16:18;99287.31;;;25.27;77.67
11349;BME280;5729;43.570;27.826;2022-09-09T08:18:46;99283.66;;;25.40;79.74
11349;BME280;5729;43.570;27.826;2022-09-09T08:21:15;99298.78;;;25.57;76.92
11349;BME280;5729;43.570;27.826;2022-09-09T08:23:43;99287.41;;;26.26;73.20
11349;BME280;5729;43.570;27.826;2022-09-09T08:26:18;99289.00;;;28.83;60.31
11349;BME280;5729;43.570;27.826;2022-09-09T08:28:50;99285.19;;;31.83;47.78
11349;BME280;5729;43.570;27.826;2022-09-09T08:31:42;99273.09;;;34.57;40.34
11349;BME280;5729;43.570;27.826;2022-09-09T08:34:08;99278.38;;;35.18;33.49
11349;BME280;5729;43.570;27.826;2022-09-09T08:36:39;99272.25;;;35.55;34.40
11349;BME280;5729;43.570;27.826;2022-09-09T08:39:06;99268.53;;;36.82;31.95
11349;BME280;5729;43.570;27.826;2022-09-09T08:50:25;99267.59;;;39.43;33.85
11349;BME280;5729;43.570;27.826;2022-09-09T08:57:53;99252.25;;;40.45;26.86
11349;BME280;5729;43.570;27.826;2022-09-09T09:00:20;99257.38;;;40.54;26.60
11349;BME280;5729;43.570;27.826;2022-09-09T09:03:01;99245.81;;;40.29;26.66
11349;BME280;5729;43.570;27.826;2022-09-09T09:05:39;99243.78;;;39.52;27.44
11349;BME280;5729;43.570;27.826;2022-09-09T09:10:49;99254.88;;;39.50;29.50
11349;BME280;5729;43.570;27.826;2022-09-09T09:13:24;99249.19;;;39.99;27.92
11349;BME280;5729;43.570;27.826;2022-09-09T09:15:58;99259.53;;;39.47;30.46
11349;BME280;5729;43.570;27.826;2022-09-09T09:18:26;99249.41;;;39.52;27.91
11349;BME280;5729;43.570;27.826;2022-09-09T09:21:10;99265.22;;;39.34;26.92
11349;BME280;5729;43.570;27.826;2022-09-09T09:24:04;99255.81;;;39.11;26.59
11349;BME280;5729;43.570;27.826;2022-09-09T09:26:34;99269.63;;;39.01;25.60
11349;BME280;5729;43.570;27.826;2022-09-09T09:29:11;99273.00;;;38.86;27.70
11349;BME280;5729;43.570;27.826;2022-09-09T09:31:37;99263.03;;;38.99;26.48
11349;BME280;5729;43.570;27.826;2022-09-09T09:34:03;99287.31;;;39.64;22.99
11349;BME280;5729;43.570;27.826;2022-09-09T09:36:40;99279.41;;;39.21;26.07
11349;BME280;5729;43.570;27.826;2022-09-09T09:39:08;99275.97;;;39.15;23.00
11349;BME280;5729;43.570;27.826;2022-09-09T09:41:41;99269.91;;;39.11;23.75
11349;BME280;5729;43.570;27.826;2022-09-09T09:44:28;99262.16;;;39.04;23.68
11349;BME280;5729;43.570;27.826;2022-09-09T09:47:07;99242.97;;;39.02;23.37
11349;BME280;5729;43.570;27.826;2022-09-09T09:49:33;99250.59;;;39.15;22.89
11349;BME280;5729;43.570;27.826;2022-09-09T09:52:03;99235.94;;;39.58;25.22
11349;BME280;5729;43.570;27.826;2022-09-09T09:54:37;99239.44;;;40.08;23.50
11349;BME280;5729;43.570;27.826;2022-09-09T09:57:14;99230.75;;;39.70;21.54
11349;BME280;5729;43.570;27.826;2022-09-09T09:59:40;99212.34;;;39.76;22.41
11349;BME280;5729;43.570;27.826;2022-09-09T10:04:38;99215.53;;;39.44;22.11
11349;BME280;5729;43.570;27.826;2022-09-09T10:07:18;99229.41;;;39.42;21.36
11349;BME280;5729;43.570;27.826;2022-09-09T10:09:44;99230.63;;;39.54;21.91
11349;BME280;5729;43.570;27.826;2022-09-09T10:22:52;99234.09;;;38.38;23.55
11349;BME280;5729;43.570;27.826;2022-09-09T10:25:43;99231.34;;;38.72;23.86
11349;BME280;5729;43.570;27.826;2022-09-09T10:36:00;99235.88;;;39.79;21.01
11349;BME280;5729;43.570;27.826;2022-09-09T10:38:42;99232.09;;;39.48;22.13
11349;BME280;5729;43.570;27.826;2022-09-09T10:44:06;99228.34;;;38.91;21.34
11349;BME280;5729;43.570;27.826;2022-09-09T10:54:48;99221.78;;;39.50;23.76
11349;BME280;5729;43.570;27.826;2022-09-09T10:57:33;99220.13;;;39.83;21.40
11349;BME280;5729;43.570;27.826;2022-09-09T11:00:05;99220.53;;;39.59;22.82
11349;BME280;5729;43.570;27.826;2022-09-09T11:02:33;99222.50;;;39.30;21.92
11349;BME280;5729;43.570;27.826;2022-09-09T11:05:08;99221.63;;;39.35;24.17
11349;BME280;5729;43.570;27.826;2022-09-09T11:07:56;99219.59;;;38.47;21.18
11349;BME280;5729;43.570;27.826;2022-09-09T11:10:38;99233.38;;;37.85;21.12
11349;BME280;5729;43.570;27.826;2022-09-09T11:19:33;99228.84;;;37.04;23.21
11349;BME280;5729;43.570;27.826;2022-09-09T11:22:02;99227.56;;;36.73;23.41
11349;BME280;5729;43.570;27.826;2022-09-09T11:24:40;99214.25;;;36.36;22.71
11349;BME280;5729;43.570;27.826;2022-09-09T11:27:09;99217.84;;;36.13;23.98
11349;BME280;5729;43.570;27.826;2022-09-09T11:38:32;99199.94;;;34.83;26.86
11349;BME280;5729;43.570;27.826;2022-09-09T11:41:05;99173.50;;;34.32;27.24
11349;BME280;5729;43.570;27.826;2022-09-09T11:46:13;99190.41;;;34.62;26.62
11349;BME280;5729;43.570;27.826;2022-09-09T11:48:42;99202.28;;;34.73;26.79
11349;BME280;5729;43.570;27.826;2022-09-09T11:53:50;99187.16;;;34.46;29.66
11349;BME280;5729;43.570;27.826;2022-09-09T11:56:34;99189.16;;;34.98;31.07
11349;BME280;5729;43.570;27.826;2022-09-09T11:59:37;99184.06;;;34.97;26.75
11349;BME280;5729;43.570;27.826;2022-09-09T12:02:31;99181.41;;;34.74;28.39
11349;BME280;5729;43.570;27.826;2022-09-09T12:07:37;99190.13;;;35.60;29.03
11349;BME280;5729;43.570;27.826;2022-09-09T12:10:26;99185.59;;;35.27;28.52
11349;BME280;5729;43.570;27.826;2022-09-09T12:12:53;99182.88;;;35.16;28.46
11349;BME280;5729;43.570;27.826;2022-09-09T12:15:25;99186.88;;;35.26;30.62
11349;BME280;5729;43.570;27.826;2022-09-09T12:17:54;99171.03;;;35.83;31.33
11349;BME280;5729;43.570;27.826;2022-09-09T12:20:30;99177.34;;;36.08;28.98
11349;BME280;5729;43.570;27.826;2022-09-09T12:31:10;99145.38;;;35.25;32.09
11349;BME280;5729;43.570;27.826;2022-09-09T12:33:43;99167.59;;;35.17;30.23
11349;BME280;5729;43.570;27.826;2022-09-09T12:36:29;99160.88;;;35.32;32.23
11349;BME280;5729;43.570;27.826;2022-09-09T12:38:59;99164.72;;;35.23;29.98
11349;BME280;5729;43.570;27.826;2022-09-09T12:41:35;99155.00;;;34.64;31.73
11349;BME280;5729;43.570;27.826;2022-09-09T12:44:06;99155.28;;;34.60;30.82
11349;BME280;5729;43.570;27.826;2022-09-09T12:46:42;99152.31;;;34.47;30.67
11349;BME280;5729;43.570;27.826;2022-09-09T12:49:44;99142.06;;;34.61;34.56
11349;BME280;5729;43.570;27.826;2022-09-09T12:52:17;99152.97;;;35.00;31.39
11349;BME280;5729;43.570;27.826;2022-09-09T12:54:45;99137.41;;;35.05;32.53
11349;BME280;5729;43.570;27.826;2022-09-09T12:57:12;99121.94;;;35.22;32.90
11349;BME280;5729;43.570;27.826;2022-09-09T12:59:43;99140.50;;;35.31;29.89
11349;BME280;5729;43.570;27.826;2022-09-09T13:04:43;99132.91;;;34.55;30.94
11349;BME280;5729;43.570;27.826;2022-09-09T13:07:11;99130.50;;;33.82;31.28
11349;BME280;5729;43.570;27.826;2022-09-09T13:09:37;99121.22;;;33.30;32.29
11349;BME280;5729;43.570;27.826;2022-09-09T13:12:04;99131.16;;;33.03;32.90
11349;BME280;5729;43.570;27.826;2022-09-09T13:14:35;99133.44;;;33.27;32.84
11349;BME280;5729;43.570;27.826;2022-09-09T13:17:04;99132.41;;;33.41;34.63
11349;BME280;5729;43.570;27.826;2022-09-09T13:19:35;99112.56;;;33.44;37.74
11349;BME280;5729;43.570;27.826;2022-09-09T13:22:16;99123.25;;;33.35;35.61
11349;BME280;5729;43.570;27.826;2022-09-09T13:24:44;99126.06;;;33.40;33.61
11349;BME280;5729;43.570;27.826;2022-09-09T13:27:35;99121.31;;;33.87;36.07
11349;BME280;5729;43.570;27.826;2022-09-09T13:30:29;99126.09;;;34.04;34.43
11349;BME280;5729;43.570;27.826;2022-09-09T13:35:47;99116.63;;;33.43;37.55
11349;BME280;5729;43.570;27.826;2022-09-09T13:38:15;99130.28;;;33.64;36.65
11349;BME280;5729;43.570;27.826;2022-09-09T13:40:58;99129.00;;;33.81;37.62
11349;BME280;5729;43.570;27.826;2022-09-09T13:43:26;99126.63;;;34.43;36.39
11349;BME280;5729;43.570;27.826;2022-09-09T13:45:54;99132.69;;;34.88;35.46
11349;BME280;5729;43.570;27.826;2022-09-09T13:48:21;99132.28;;;35.09;36.24
11349;BME280;5729;43.570;27.826;2022-09-09T13:50:55;99125.59;;;35.42;37.98
11349;BME280;5729;43.570;27.826;2022-09-09T13:53:20;99125.97;;;35.33;34.52
11349;BME280;5729;43.570;27.826;2022-09-09T13:55:46;99120.88;;;35.01;34.70
11349;BME280;5729;43.570;27.826;2022-09-09T13:58:16;99114.59;;;34.89;35.01
11349;BME280;5729;43.570;27.826;2022-09-09T14:00:45;99122.41;;;34.67;34.57
11349;BME280;5729;43.570;27.826;2022-09-09T14:03:11;99114.66;;;34.48;36.10
11349;BME280;5729;43.570;27.826;2022-09-09T14:05:37;99108.22;;;34.18;37.50
11349;BME280;5729;43.570;27.826;2022-09-09T14:08:07;99117.81;;;33.70;37.46
11349;BME280;5729;43.570;27.826;2022-09-09T14:10:33;99122.22;;;33.43;38.15
11349;BME280;5729;43.570;27.826;2022-09-09T14:13:03;99123.69;;;33.61;38.69
11349;BME280;5729;43.570;27.826;2022-09-09T14:15:28;99095.28;;;33.46;37.32
11349;BME280;5729;43.570;27.826;2022-09-09T14:17:54;99113.88;;;33.15;38.90
11349;BME280;5729;43.570;27.826;2022-09-09T14:20:21;99108.78;;;32.53;40.77
11349;BME280;5729;43.570;27.826;2022-09-09T14:22:47;99113.44;;;31.96;41.41
11349;BME280;5729;43.570;27.826;2022-09-09T14:25:12;99090.59;;;31.33;45.06
11349;BME280;5729;43.570;27.826;2022-09-09T14:27:39;99101.94;;;31.24;45.69
11349;BME280;5729;43.570;27.826;2022-09-09T14:30:05;99102.28;;;31.43;45.28
11349;BME280;5729;43.570;27.826;2022-09-09T14:32:31;99097.66;;;31.77;52.40
11349;BME280;5729;43.570;27.826;2022-09-09T14:34:58;99102.41;;;32.41;51.59
11349;BME280;5729;43.570;27.826;2022-09-09T14:37:23;99116.66;;;32.49;45.25
11349;BME280;5729;43.570;27.826;2022-09-09T14:39:49;99103.94;;;32.25;44.17
11349;BME280;5729;43.570;27.826;2022-09-09T14:42:15;99095.69;;;31.88;46.54
11349;BME280;5729;43.570;27.826;2022-09-09T14:44:41;99094.72;;;32.08;48.23
11349;BME280;5729;43.570;27.826;2022-09-09T14:47:07;99103.91;;;32.20;46.50
11349;BME280;5729;43.570;27.826;2022-09-09T14:49:36;99098.84;;;32.29;47.89
11349;BME280;5729;43.570;27.826;2022-09-09T14:52:03;99089.72;;;32.23;46.17
11349;BME280;5729;43.570;27.826;2022-09-09T14:54:29;99095.31;;;32.23;46.62
11349;BME280;5729;43.570;27.826;2022-09-09T14:56:55;99085.97;;;31.72;46.82
11349;BME280;5729;43.570;27.826;2022-09-09T14:59:22;99087.88;;;31.50;50.30
11349;BME280;5729;43.570;27.826;2022-09-09T15:01:47;99087.69;;;31.16;53.13
11349;BME280;5729;43.570;27.826;2022-09-09T15:04:14;99083.66;;;30.86;56.47
11349;BME280;5729;43.570;27.826;2022-09-09T15:06:43;99090.72;;;30.81;60.50
11349;BME280;5729;43.570;27.826;2022-09-09T15:09:12;99086.72;;;30.88;64.65
11349;BME280;5729;43.570;27.826;2022-09-09T15:11:38;99088.75;;;30.87;65.51
11349;BME280;5729;43.570;27.826;2022-09-09T15:14:04;99076.84;;;30.55;70.05
11349;BME280;5729;43.570;27.826;2022-09-09T15:16:30;99086.03;;;30.41;73.10
11349;BME280;5729;43.570;27.826;2022-09-09T15:18:58;99082.84;;;30.22;73.90
11349;BME280;5729;43.570;27.826;2022-09-09T15:21:26;99085.50;;;29.91;74.51
11349;BME280;5729;43.570;27.826;2022-09-09T15:23:52;99082.28;;;29.57;72.83